Time;durP1;ratioP1;P1;durP2;ratioP2;P2;SDS_P1;SDS_P2;PMS_P1;PMS_P2;Temp;Humidity;BMP_temperature;BMP_pressure;BME280_temperature;BME280_humidity;BME280_pressure;Samples;Min_cycle;Max_cycle;Signal;HPM_P1;HPM_P2
2021/11/20 00:00:15;;;;;;;35.65;22.92;;;;;;;10.21;100.00;101487.22;4995665;28;20462;-69
2021/11/20 00:02:43;;;;;;;35.38;23.05;;;;;;;10.21;100.00;101486.34;4976458;28;20053;-69
2021/11/20 00:05:14;;;;;;;33.97;21.40;;;;;;;10.26;100.00;101484.38;4976222;28;20071;-68
2021/11/20 00:07:41;;;;;;;34.72;22.15;;;;;;;10.22;100.00;101480.06;4976244;28;20169;-69
2021/11/20 00:10:10;;;;;;;37.90;22.95;;;;;;;10.28;100.00;101471.84;4976331;28;20065;-68
2021/11/20 00:12:41;;;;;;;36.10;22.73;;;;;;;10.25;100.00;101480.81;4976095;28;20054;-69
2021/11/20 00:15:13;;;;;;;41.47;23.02;;;;;;;10.23;100.00;101476.50;4990374;28;20054;-68
2021/11/20 00:17:39;;;;;;;33.38;21.92;;;;;;;10.19;100.00;101468.59;5005358;28;20065;-69
2021/11/20 00:20:12;;;;;;;37.08;21.65;;;;;;;10.19;100.00;101470.41;5015465;28;20049;-68
2021/11/20 00:22:43;;;;;;;33.35;23.33;;;;;;;10.23;100.00;101465.81;5003406;28;20050;-68
2021/11/20 00:25:21;;;;;;;36.75;23.48;;;;;;;10.29;100.00;101468.22;5016091;28;20042;-68
2021/11/20 00:27:52;;;;;;;38.53;23.38;;;;;;;10.22;100.00;101462.28;4999284;28;20428;-68
2021/11/20 00:30:23;;;;;;;32.63;20.90;;;;;;;10.34;100.00;101463.59;5012324;28;20071;-68
2021/11/20 00:32:59;;;;;;;33.70;21.90;;;;;;;10.29;100.00;101457.56;5034423;28;20445;-68
2021/11/20 00:35:31;;;;;;;37.63;22.15;;;;;;;10.34;100.00;101460.91;5034411;28;20104;-69
2021/11/20 00:38:01;;;;;;;41.47;22.38;;;;;;;10.31;100.00;101456.56;5018210;28;20045;-68
2021/11/20 00:40:35;;;;;;;34.83;22.23;;;;;;;10.27;100.00;101460.31;5019217;28;20050;-69
2021/11/20 00:43:02;;;;;;;33.92;21.35;;;;;;;10.34;100.00;101460.91;5018852;28;20046;-68
2021/11/20 00:45:30;;;;;;;37.83;22.92;;;;;;;10.24;100.00;101459.56;5018745;28;20049;-68
2021/11/20 00:47:58;;;;;;;34.05;21.27;;;;;;;10.20;100.00;101461.47;5018627;28;20045;-68
2021/11/20 00:50:26;;;;;;;36.45;22.95;;;;;;;10.15;100.00;101460.78;5018661;28;20128;-68
2021/11/20 00:52:53;;;;;;;36.42;22.15;;;;;;;10.19;100.00;101457.06;5018862;28;20044;-68
2021/11/20 00:55:24;;;;;;;36.83;21.63;;;;;;;10.23;100.00;101448.00;5018594;28;20049;-68
2021/11/20 00:57:53;;;;;;;32.55;21.95;;;;;;;10.17;100.00;101456.25;5018451;28;20049;-68
2021/11/20 01:00:26;;;;;;;35.88;22.35;;;;;;;10.21;100.00;101443.66;5017440;28;20050;-68
2021/11/20 01:02:53;;;;;;;35.97;22.55;;;;;;;10.09;100.00;101439.66;5033787;28;20045;-70
2021/11/20 01:05:21;;;;;;;38.47;23.33;;;;;;;10.13;100.00;101446.63;5017115;28;20414;-69
2021/11/20 01:07:49;;;;;;;35.88;22.65;;;;;;;10.17;100.00;101449.13;5018339;28;20038;-69
2021/11/20 01:10:21;;;;;;;34.60;22.48;;;;;;;10.18;100.00;101450.84;5017088;28;20137;-69
2021/11/20 01:12:48;;;;;;;37.05;22.85;;;;;;;10.15;100.00;101440.28;5033409;28;20153;-68
2021/11/20 01:15:24;;;;;;;35.65;22.40;;;;;;;10.09;100.00;101437.00;5033649;28;20122;-69
2021/11/20 01:17:51;;;;;;;36.05;22.52;;;;;;;10.02;100.00;101434.56;5033367;28;20097;-69
2021/11/20 01:20:20;;;;;;;35.20;22.98;;;;;;;10.15;100.00;101445.63;5016989;28;20136;-69
2021/11/20 01:22:53;;;;;;;38.03;22.30;;;;;;;10.10;100.00;101434.28;5033354;28;20054;-69
2021/11/20 01:25:51;;;;;;;37.42;21.10;;;;;;;10.06;100.00;101437.97;5006963;28;20345;-69
2021/11/20 01:28:34;;;;;;;34.08;22.02;;;;;;;10.09;100.00;101435.22;5012263;28;20341;-69
2021/11/20 01:31:32;;;;;;;34.97;20.92;;;;;;;10.08;100.00;101438.78;4978709;28;20081;-69
2021/11/20 01:34:00;;;;;;;32.72;21.52;;;;;;;10.04;100.00;101421.19;4979235;28;20443;-69
2021/11/20 01:36:31;;;;;;;32.28;20.83;;;;;;;10.15;100.00;101434.94;4993993;28;20532;-69
2021/11/20 01:39:00;;;;;;;;;;;;;;;10.13;100.00;101434.16;4994187;28;20173;-70
2021/11/20 01:41:35;;;;;;;37.50;21.60;;;;;;;10.16;100.00;101430.50;4993799;28;19926;-69
2021/11/20 01:44:30;;;;;;;34.47;22.42;;;;;;;10.10;100.00;101417.38;4990764;28;20105;-69
2021/11/20 01:47:01;;;;;;;35.55;22.80;;;;;;;10.22;100.00;101421.38;4978556;28;20043;-69
2021/11/20 01:49:35;;;;;;;35.50;21.65;;;;;;;10.19;100.00;101415.22;4977384;28;20062;-69
2021/11/20 01:52:30;;;;;;;33.72;21.10;;;;;;;10.19;100.00;101415.22;4993531;28;20146;-69
2021/11/20 01:55:23;;;;;;;37.88;21.73;;;;;;;10.12;100.00;101413.72;4993525;28;20046;-69
2021/11/20 01:58:29;;;;;;;34.25;21.05;;;;;;;10.11;100.00;101409.34;4986086;28;20694;-69
2021/11/20 02:01:03;;;;;;;32.40;19.58;;;;;;;10.10;100.00;101399.59;4993573;28;20432;-69
2021/11/20 02:03:37;;;;;;;35.95;21.23;;;;;;;10.12;100.00;101395.06;4993271;28;20042;-68
2021/11/20 02:06:19;;;;;;;39.05;21.95;;;;;;;10.07;100.00;101386.38;4993482;28;20051;-68
2021/11/20 02:09:15;;;;;;;34.22;22.08;;;;;;;10.07;100.00;101382.84;4978148;28;20133;-68
2021/11/20 02:12:22;;;;;;;34.33;21.38;;;;;;;10.01;100.00;101375.94;4993270;28;20051;-68
2021/11/20 02:14:50;;;;;;;37.53;22.92;;;;;;;10.04;99.96;101384.69;4993200;28;20050;-68
2021/11/20 02:17:33;;;;;;;35.92;22.33;;;;;;;10.05;99.52;101380.22;4992860;28;20349;-69
2021/11/20 02:20:21;;;;;;;36.13;22.48;;;;;;;10.01;99.84;101371.47;4977260;28;20313;-69
2021/11/20 02:22:47;;;;;;;34.58;21.00;;;;;;;10.02;99.64;101381.22;4992655;28;20057;-69
2021/11/20 02:25:20;;;;;;;39.03;21.30;;;;;;;10.11;100.00;101377.31;4996170;28;20050;-69
2021/11/20 02:28:11;;;;;;;35.17;21.15;;;;;;;10.08;99.52;101366.75;4997123;28;20049;-69
2021/11/20 02:30:43;;;;;;;35.17;21.58;;;;;;;10.09;99.74;101378.31;5012120;28;20088;-69
2021/11/20 02:33:21;;;;;;;36.42;22.20;;;;;;;10.05;100.00;101366.91;5012408;28;20052;-68
2021/11/20 02:35:53;;;;;;;35.88;21.65;;;;;;;10.10;100.00;101372.03;4995889;28;20503;-69
2021/11/20 02:38:28;;;;;;;31.20;20.88;;;;;;;10.15;99.20;101370.06;4995877;28;20130;-68
2021/11/20 02:40:57;;;;;;;32.00;21.73;;;;;;;10.12;99.09;101368.38;5012124;28;20076;-68
2021/11/20 02:43:26;;;;;;;34.53;20.88;;;;;;;10.10;99.71;101367.59;4995891;28;20050;-68
2021/11/20 02:46:10;;;;;;;31.00;20.02;;;;;;;9.96;99.24;101338.78;5012286;28;20060;-68
2021/11/20 02:48:38;;;;;;;35.10;21.73;;;;;;;10.04;99.03;101355.34;4995895;28;20120;-68
2021/11/20 02:51:13;;;;;;;37.55;22.90;;;;;;;9.99;98.62;101361.78;4995710;28;20051;-70
2021/11/20 02:53:47;;;;;;;34.33;22.02;;;;;;;10.02;99.01;101348.34;4995610;28;20046;-69
2021/11/20 02:56:19;;;;;;;37.63;22.65;;;;;;;10.05;98.42;101334.88;5011936;28;20066;-69
2021/11/20 02:58:47;;;;;;;35.92;22.15;;;;;;;10.13;98.66;101345.25;4995610;28;20046;-69
2021/11/20 03:01:26;;;;;;;33.55;21.55;;;;;;;10.10;98.64;101345.38;5012129;28;20436;-69
2021/11/20 03:03:53;;;;;;;32.05;21.25;;;;;;;10.13;98.98;101334.59;4979392;28;20042;-69
2021/11/20 03:06:21;;;;;;;33.88;21.73;;;;;;;10.05;99.01;101335.75;5011687;28;20050;-69
2021/11/20 03:08:48;;;;;;;36.47;21.38;;;;;;;10.08;99.15;101339.22;5011423;28;20816;-69
2021/11/20 03:11:18;;;;;;;37.42;21.73;;;;;;;10.09;98.95;101336.50;5011476;28;20286;-69
2021/11/20 03:13:50;;;;;;;34.05;22.23;;;;;;;9.99;99.13;101338.69;4995246;28;20054;-69
2021/11/20 03:16:57;;;;;;;33.90;21.77;;;;;;;10.02;99.50;101340.34;4998870;28;20050;-68
2021/11/20 03:19:27;;;;;;;37.08;22.27;;;;;;;10.03;99.07;101342.94;5011182;28;20145;-69
2021/11/20 03:22:05;;;;;;;36.40;23.25;;;;;;;10.00;99.20;101336.84;5011509;28;20475;-69
2021/11/20 03:24:33;;;;;;;36.20;22.92;;;;;;;9.96;99.66;101332.59;5011130;28;20053;-69
2021/11/20 03:27:01;;;;;;;36.45;22.17;;;;;;;9.98;98.99;101323.56;5011378;28;20053;-68
2021/11/20 03:29:32;;;;;;;;;;;;;;;10.03;98.81;101318.09;5011654;28;20138;-69
2021/11/20 03:32:01;;;;;;;39.55;22.73;;;;;;;10.04;98.51;101319.81;5011251;28;19922;-69
2021/11/20 03:34:31;;;;;;;38.30;22.63;;;;;;;10.02;97.92;101311.88;5011089;28;20414;-69
2021/11/20 03:36:59;;;;;;;36.70;21.77;;;;;;;10.07;98.44;101319.69;4994866;28;20050;-69
2021/11/20 03:39:33;;;;;;;33.70;22.95;;;;;;;9.97;98.96;101303.16;5011065;28;20054;-69
2021/11/20 03:42:02;;;;;;;35.60;21.80;;;;;;;10.07;98.96;101310.81;4994783;28;20050;-69
2021/11/20 03:44:34;;;;;;;38.17;22.92;;;;;;;10.08;98.37;101308.06;4994772;28;20046;-69
2021/11/20 03:47:02;;;;;;;34.78;22.02;;;;;;;10.07;98.65;101303.66;4994694;28;20046;-69
2021/11/20 03:49:35;;;;;;;36.83;22.90;;;;;;;10.03;98.28;101286.06;4994735;28;20042;-68
2021/11/20 03:52:03;;;;;;;34.97;22.63;;;;;;;10.04;98.15;101314.47;4994574;28;20161;-68
2021/11/20 03:54:31;;;;;;;34.50;22.63;;;;;;;9.98;98.87;101309.38;4994107;28;20121;-68
2021/11/20 03:56:59;;;;;;;39.72;24.17;;;;;;;10.04;98.50;101311.81;5010607;28;20050;-68
2021/11/20 03:59:26;;;;;;;37.95;23.52;;;;;;;10.00;98.78;101308.41;4994564;28;20050;-69
2021/11/20 04:01:53;;;;;;;35.80;22.52;;;;;;;10.03;97.83;101312.75;4995706;28;20065;-69
2021/11/20 04:04:22;;;;;;;44.08;26.80;;;;;;;9.88;98.70;101311.56;4994501;28;20126;-68
2021/11/20 04:06:49;;;;;;;39.65;24.23;;;;;;;9.95;97.61;101313.03;5010830;28;20394;-68
2021/11/20 04:09:16;;;;;;;42.53;23.33;;;;;;;9.95;97.80;101309.50;4995862;28;20046;-68
2021/11/20 04:11:50;;;;;;;36.45;22.85;;;;;;;9.96;98.39;101317.44;4994512;28;20046;-68
2021/11/20 04:14:21;;;;;;;41.30;23.58;;;;;;;10.02;98.34;101306.53;5010838;28;20138;-68
2021/11/20 04:16:49;;;;;;;37.40;23.98;;;;;;;10.00;97.80;101302.19;5010727;28;20113;-68
2021/11/20 04:19:21;;;;;;;40.83;24.52;;;;;;;10.02;97.39;101311.88;4978686;28;20066;-69
2021/11/20 04:21:49;;;;;;;39.10;24.00;;;;;;;9.99;97.60;101313.78;5010895;28;20046;-68
2021/11/20 04:24:18;;;;;;;36.40;23.42;;;;;;;9.99;98.09;101311.13;4994209;28;20082;-67
2021/11/20 04:27:05;;;;;;;38.38;24.77;;;;;;;10.00;97.80;101299.53;4976113;28;20051;-68
2021/11/20 04:29:59;;;;;;;37.00;23.90;;;;;;;10.03;97.48;101312.75;5001426;28;20051;-69
2021/11/20 04:32:27;;;;;;;37.53;23.98;;;;;;;10.01;97.76;101309.25;4978424;28;20054;-69
2021/11/20 04:34:54;;;;;;;41.25;26.15;;;;;;;9.89;97.30;101305.28;5010667;28;20105;-69
2021/11/20 04:37:21;;;;;;;39.17;25.33;;;;;;;9.94;97.60;101305.09;5010548;28;20133;-69
2021/11/20 04:39:48;;;;;;;44.05;25.55;;;;;;;9.94;97.32;101299.75;5010415;28;20407;-69
2021/11/20 04:42:16;;;;;;;41.42;25.60;;;;;;;10.05;96.73;101301.09;4994187;28;20061;-69
2021/11/20 04:44:44;;;;;;;44.40;26.70;;;;;;;9.96;97.28;101289.94;5010540;28;20050;-69
2021/11/20 04:47:11;;;;;;;39.35;24.35;;;;;;;9.93;97.49;101285.56;5010499;28;20046;-69
2021/11/20 04:49:38;;;;;;;41.33;25.15;;;;;;;9.98;97.01;101288.91;5010536;28;20052;-68
2021/11/20 04:52:10;;;;;;;;;;;;;;;10.02;96.97;101293.19;5010813;28;20057;-68
2021/11/20 04:54:37;;;;;;;40.80;24.63;;;;;;;9.91;97.63;101290.97;5010471;28;19926;-68
2021/11/20 04:57:24;;;;;;;43.85;25.23;;;;;;;9.94;97.87;101283.75;4994098;28;20062;-68
2021/11/20 04:59:52;;;;;;;40.17;24.27;;;;;;;9.90;98.01;101291.91;4994077;28;20341;-67
2021/11/20 05:02:22;;;;;;;38.10;23.33;;;;;;;9.94;97.34;101279.31;5010311;28;20046;-67
2021/11/20 05:04:49;;;;;;;39.33;24.40;;;;;;;10.04;96.67;101287.81;4994092;28;20052;-67
2021/11/20 05:07:16;;;;;;;40.55;24.65;;;;;;;9.99;96.98;101289.78;4996065;28;20058;-68
2021/11/20 05:09:43;;;;;;;41.78;23.98;;;;;;;9.97;97.27;101286.31;4998893;28;20062;-67
2021/11/20 05:12:11;;;;;;;41.85;24.58;;;;;;;9.85;97.77;101271.66;5013914;28;20038;-67
2021/11/20 05:14:38;;;;;;;44.60;25.80;;;;;;;9.86;97.98;101274.28;5013950;28;20062;-68
2021/11/20 05:17:06;;;;;;;38.55;23.92;;;;;;;9.97;97.36;101275.66;4997502;28;20058;-68
2021/11/20 05:19:37;;;;;;;39.38;24.23;;;;;;;9.96;96.78;101263.25;5013857;28;20360;-68
2021/11/20 05:22:04;;;;;;;41.58;24.65;;;;;;;9.98;97.30;101274.72;4997442;28;20054;-67
2021/11/20 05:24:33;;;;;;;39.72;23.45;;;;;;;9.92;97.30;101262.50;5013597;28;20054;-69
2021/11/20 05:27:02;;;;;;;37.53;21.45;;;;;;;9.90;96.97;101283.91;4997190;28;20054;-69
2021/11/20 05:32:04;;;;;;;37.72;21.80;;;;;;;9.98;96.80;101270.22;4997106;28;20097;-69
2021/11/20 05:34:37;;;;;;;32.72;21.40;;;;;;;9.89;96.58;101262.63;5013575;28;20054;-70
2021/11/20 05:37:06;;;;;;;38.65;23.05;;;;;;;9.86;97.04;101273.41;4997551;28;20347;-69
2021/11/20 05:39:33;;;;;;;37.55;22.10;;;;;;;9.80;97.41;101263.84;5013397;28;20088;-68
2021/11/20 05:42:01;;;;;;;38.25;22.80;;;;;;;9.80;97.28;101261.19;4997172;28;20344;-68
2021/11/20 05:44:28;;;;;;;33.67;20.63;;;;;;;9.85;96.79;101261.88;4996886;28;20138;-68
2021/11/20 05:46:59;;;;;;;33.92;20.85;;;;;;;9.82;97.14;101262.00;4996955;28;20104;-68
2021/11/20 05:49:32;;;;;;;35.20;21.70;;;;;;;9.82;96.64;101262.00;4996958;28;20046;-68
2021/11/20 05:52:04;;;;;;;35.78;21.50;;;;;;;9.88;97.05;101261.78;4996783;28;20070;-68
2021/11/20 05:54:32;;;;;;;33.95;20.40;;;;;;;9.92;95.99;101258.03;4997220;28;20340;-68
2021/11/20 05:57:07;;;;;;;32.75;19.70;;;;;;;9.92;95.99;101252.69;4996798;28;20128;-68
2021/11/20 05:59:36;;;;;;;34.13;20.25;;;;;;;9.77;96.01;101258.66;4996733;28;20050;-68
2021/11/20 06:02:05;;;;;;;31.95;20.52;;;;;;;9.77;95.63;101262.16;5012829;28;20073;-68
2021/11/20 06:04:39;;;;;;;32.35;20.15;;;;;;;9.87;95.00;101257.34;4996680;28;20137;-69
2021/11/20 06:07:06;;;;;;;31.25;19.10;;;;;;;9.82;96.11;101258.47;4996445;28;20138;-68
2021/11/20 06:09:33;;;;;;;30.63;18.38;;;;;;;9.85;95.96;101245.00;5012843;28;20122;-69
2021/11/20 06:12:00;;;;;;;32.55;19.25;;;;;;;9.82;96.41;101246.00;4996594;28;20054;-69
2021/11/20 06:14:29;;;;;;;28.25;18.38;;;;;;;9.83;97.06;101246.88;4996510;28;20340;-69
2021/11/20 06:16:56;;;;;;;30.23;18.48;;;;;;;9.82;96.55;101242.47;4996744;28;20108;-69
2021/11/20 06:19:23;;;;;;;28.42;18.55;;;;;;;9.75;96.63;101244.53;5011566;28;20101;-68
2021/11/20 06:21:50;;;;;;;30.13;18.60;;;;;;;9.62;96.64;101238.81;4996180;28;20153;-73
2021/11/20 06:24:17;;;;;;;32.17;18.55;;;;;;;9.73;96.83;101246.38;4996056;28;20086;-68
2021/11/20 06:26:46;;;;;;;35.38;19.73;;;;;;;9.70;97.16;101239.34;5012507;28;20058;-69
2021/11/20 06:29:15;;;;;;;30.95;19.40;;;;;;;9.74;97.03;101237.44;4980195;28;20048;-68
2021/11/20 06:31:48;;;;;;;29.35;19.08;;;;;;;9.80;96.86;101242.53;5012515;28;20056;-67
2021/11/20 06:34:36;;;;;;;29.15;18.05;;;;;;;9.74;95.98;101232.97;5012291;28;20053;-69
2021/11/20 06:37:22;;;;;;;28.63;17.08;;;;;;;9.79;95.82;101240.78;4993512;28;20053;-70
2021/11/20 06:39:57;;;;;;;27.40;17.63;;;;;;;9.73;96.05;101236.59;4995931;28;20181;-66
2021/11/20 06:42:24;;;;;;;28.08;17.63;;;;;;;9.86;95.05;101228.94;4993967;28;20379;-65
2021/11/20 06:44:52;;;;;;;28.77;17.05;;;;;;;9.69;94.87;101234.97;5022316;28;20446;-68
2021/11/20 06:47:19;;;;;;;25.50;16.45;;;;;;;9.69;95.36;101240.28;5013749;28;20070;-74
2021/11/20 06:49:46;;;;;;;30.35;17.35;;;;;;;9.67;95.66;101234.16;5013181;28;20038;-74
2021/11/20 06:52:14;;;;;;;29.58;17.52;;;;;;;9.56;95.73;101234.59;4994477;28;20053;-72
2021/11/20 06:55:00;;;;;;;28.23;16.90;;;;;;;9.63;96.10;101246.75;5014788;28;20057;-73
2021/11/20 06:58:10;;;;;;;26.38;17.15;;;;;;;9.66;96.23;101253.75;5013498;28;20049;-72
2021/11/20 07:00:56;;;;;;;28.20;16.58;;;;;;;9.62;96.07;101246.78;5013858;28;20076;-73
2021/11/20 07:03:58;;;;;;;24.08;15.70;;;;;;;9.61;96.25;101259.28;5013840;28;20545;-69
2021/11/20 07:06:43;;;;;;;26.73;15.57;;;;;;;9.70;96.48;101257.16;5014458;28;20046;-71
2021/11/20 07:09:11;;;;;;;29.27;16.63;;;;;;;9.73;96.03;101254.38;5012981;28;20053;-71
2021/11/20 07:11:39;;;;;;;28.17;16.42;;;;;;;9.68;96.18;101259.00;5010558;28;20045;-69
2021/11/20 07:14:06;;;;;;;26.05;16.17;;;;;;;9.72;95.51;101249.97;5013258;28;20041;-68
2021/11/20 07:16:35;;;;;;;22.27;15.27;;;;;;;9.78;94.71;101239.94;5013388;28;20379;-76
2021/11/20 07:19:03;;;;;;;28.58;15.55;;;;;;;9.69;94.68;101236.78;5013193;28;20054;-69
2021/11/20 07:21:42;;;;;;;26.50;15.88;;;;;;;9.67;95.35;101241.28;5013383;28;20056;-70
2021/11/20 07:24:21;;;;;;;23.13;14.68;;;;;;;9.66;94.99;101235.09;5011699;28;20089;-73
2021/11/20 07:26:50;;;;;;;22.52;14.50;;;;;;;9.70;94.00;101246.50;5011787;28;20140;-69
2021/11/20 07:29:17;;;;;;;20.40;13.80;;;;;;;9.77;93.18;101240.84;5009192;28;20097;-69
2021/11/20 07:32:07;;;;;;;24.55;15.05;;;;;;;9.81;92.42;101241.59;5010295;28;20180;-69
2021/11/20 07:34:35;;;;;;;21.73;14.45;;;;;;;9.86;92.18;101242.28;5007519;28;20043;-66
2021/11/20 07:37:03;;;;;;;22.20;14.38;;;;;;;9.71;92.73;101238.44;5008458;28;20064;-67
2021/11/20 07:39:31;;;;;;;20.50;13.85;;;;;;;9.76;92.08;101231.13;5008397;28;20049;-65
2021/11/20 07:41:58;;;;;;;21.73;14.68;;;;;;;9.72;91.93;101231.31;5011697;28;20042;-63
2021/11/20 07:44:25;;;;;;;22.35;14.85;;;;;;;9.73;92.46;101231.25;5004322;28;20137;-66
2021/11/20 07:46:54;;;;;;;21.83;14.88;;;;;;;9.76;91.59;101224.94;5006566;28;20088;-65
2021/11/20 07:49:27;;;;;;;20.52;14.38;;;;;;;9.78;91.41;101231.06;5007337;28;20045;-67
2021/11/20 07:51:54;;;;;;;21.55;14.25;;;;;;;9.80;91.49;101226.53;5013247;28;20046;-66
2021/11/20 07:54:22;;;;;;;23.38;14.05;;;;;;;9.80;90.92;101226.53;5012110;28;20048;-65
2021/11/20 07:57:25;;;;;;;21.40;14.02;;;;;;;9.84;90.91;101230.81;5006622;28;20038;-66
2021/11/20 07:59:57;;;;;;;20.58;14.05;;;;;;;9.82;91.26;101235.34;5008047;28;20062;-67
2021/11/20 08:02:43;;;;;;;22.88;13.25;;;;;;;9.82;91.46;101229.13;5011996;28;20052;-66
2021/11/20 08:05:18;;;;;;;21.00;13.57;;;;;;;9.82;90.75;101223.81;5011945;28;20073;-68
2021/11/20 08:08:05;;;;;;;21.00;13.93;;;;;;;9.85;90.75;101224.53;5009722;28;20042;-67
2021/11/20 08:10:44;;;;;;;21.42;13.55;;;;;;;9.77;91.59;101210.66;5012341;28;20401;-66
2021/11/20 08:13:13;;;;;;;20.98;13.63;;;;;;;9.89;91.04;101209.28;5009832;28;20058;-67
2021/11/20 08:15:54;;;;;;;19.23;13.13;;;;;;;9.90;90.67;101206.56;5005392;28;20316;-69
2021/11/20 08:18:42;;;;;;;18.35;12.30;;;;;;;9.99;89.40;101205.31;4998855;28;20053;-66
2021/11/20 08:21:28;;;;;;;19.80;12.70;;;;;;;9.95;89.83;101202.81;5012311;28;20046;-70
2021/11/20 08:24:07;;;;;;;21.58;12.98;;;;;;;9.89;90.66;101206.63;5011288;28;20054;-71
2021/11/20 08:26:38;;;;;;;18.77;13.50;;;;;;;9.84;90.98;101196.16;5010797;28;20050;-73
2021/11/20 08:29:08;;;;;;;18.90;13.05;;;;;;;9.91;90.92;101197.63;5011705;28;20042;-71
2021/11/20 08:31:41;;;;;;;20.98;14.00;;;;;;;9.99;90.87;101197.31;4993568;28;20092;-70
2021/11/20 08:34:21;;;;;;;18.92;13.45;;;;;;;10.02;89.78;101193.66;5011155;28;20049;-68
2021/11/20 08:37:15;;;;;;;19.00;13.50;;;;;;;9.99;90.25;101189.31;5011586;28;20054;-69
2021/11/20 08:39:56;;;;;;;18.95;13.52;;;;;;;9.87;91.61;101187.16;5004013;28;20039;-71
2021/11/20 08:42:23;;;;;;;21.50;14.35;;;;;;;9.81;91.26;101185.59;4977139;28;20137;-64
2021/11/20 08:44:51;;;;;;;20.95;14.02;;;;;;;9.87;91.51;101185.34;4978345;28;20145;-66
2021/11/20 08:47:24;;;;;;;21.50;14.52;;;;;;;9.92;91.20;101185.19;4989725;28;20390;-65
2021/11/20 08:49:51;;;;;;;20.65;13.65;;;;;;;9.92;90.42;101177.19;5014700;28;20042;-67
2021/11/20 08:52:22;;;;;;;20.90;13.73;;;;;;;10.01;91.17;101186.56;5015438;28;20061;-64
2021/11/20 08:54:56;;;;;;;20.58;14.43;;;;;;;9.99;90.98;101181.31;5012616;28;20054;-66
2021/11/20 08:57:24;;;;;;;19.77;14.10;;;;;;;10.04;90.67;101178.44;5013153;28;20343;-66
2021/11/20 08:59:59;;;;;;;21.25;14.05;;;;;;;9.88;92.02;101175.56;5015287;28;20045;-64
2021/11/20 09:02:51;;;;;;;22.23;13.25;;;;;;;9.85;91.40;101168.53;4998973;28;20156;-67
2021/11/20 09:05:26;;;;;;;23.65;13.60;;;;;;;9.91;91.44;101168.28;5013975;28;20462;-72
2021/11/20 09:08:03;;;;;;;21.27;14.07;;;;;;;10.03;90.42;101171.38;4997960;28;20042;-67
2021/11/20 09:10:45;;;;;;;19.33;13.05;;;;;;;10.00;90.71;101176.84;4998401;28;20034;-66
2021/11/20 09:13:15;;;;;;;28.07;14.40;;;;;;;10.04;90.70;101168.63;4997547;28;20050;-66
2021/11/20 09:15:52;;;;;;;19.55;13.98;;;;;;;10.10;90.28;101170.19;5013602;28;20054;-66
2021/11/20 09:18:26;;;;;;;20.15;13.77;;;;;;;10.07;90.30;101175.63;5004662;28;20223;-66
2021/11/20 09:20:55;;;;;;;21.10;14.15;;;;;;;10.14;89.94;101176.25;4995868;28;20092;-66
2021/11/20 09:23:53;;;;;;;20.05;13.90;;;;;;;10.09;90.21;101171.13;4993215;28;20054;-71
2021/11/20 09:26:35;;;;;;;22.02;13.40;;;;;;;10.12;90.00;101167.44;5004464;28;20055;-70
2021/11/20 09:29:07;;;;;;;22.25;12.85;;;;;;;10.07;89.94;101167.63;5004020;28;20431;-70
2021/11/20 09:31:37;;;;;;;22.45;14.75;;;;;;;10.11;90.75;101166.59;4999336;28;20124;-65
2021/11/20 09:34:05;;;;;;;21.27;14.10;;;;;;;10.18;89.72;101162.72;5013311;28;20042;-70
2021/11/20 09:36:34;;;;;;;19.60;14.00;;;;;;;10.12;89.33;101168.31;4999488;28;20054;-65
2021/11/20 09:39:31;;;;;;;27.35;15.05;;;;;;;10.10;89.74;101167.53;5006230;28;20348;-69
2021/11/20 09:42:17;;;;;;;23.48;14.13;;;;;;;10.09;89.25;101167.56;5006040;28;20122;-70
2021/11/20 09:44:49;;;;;;;21.55;14.75;;;;;;;10.11;89.54;101168.38;5015561;28;20056;-69
2021/11/20 09:47:30;;;;;;;23.55;13.68;;;;;;;10.00;88.78;101155.50;5014739;28;20108;-69
2021/11/20 09:50:17;;;;;;;20.83;13.88;;;;;;;10.03;89.57;101164.22;5012092;28;20137;-69
2021/11/20 09:52:48;;;;;;;24.35;13.93;;;;;;;10.08;88.43;101161.38;5013897;28;20068;-68
2021/11/20 09:55:25;;;;;;;20.77;13.80;;;;;;;10.16;88.62;101156.59;5011674;28;20048;-68
2021/11/20 09:58:02;;;;;;;21.35;14.27;;;;;;;10.25;87.84;101149.97;5014767;28;20430;-70
2021/11/20 10:01:11;;;;;;;25.20;14.18;;;;;;;10.23;88.21;101153.66;5011836;28;20072;-67
2021/11/20 10:04:07;;;;;;;22.83;13.20;;;;;;;10.22;88.33;101146.56;5014375;28;20054;-67
2021/11/20 10:06:43;;;;;;;21.42;12.95;;;;;;;10.23;87.05;101153.66;5003380;28;20059;-66
2021/11/20 10:09:21;;;;;;;22.80;13.85;;;;;;;10.24;87.61;101155.38;4997602;28;20046;-68
2021/11/20 10:11:51;;;;;;;20.50;13.27;;;;;;;10.24;87.10;101163.38;5012719;28;20065;-67
2021/11/20 10:14:36;;;;;;;21.10;13.23;;;;;;;10.25;87.08;101151.78;5012533;28;20057;-68
2021/11/20 10:17:15;;;;;;;20.67;13.68;;;;;;;10.08;87.04;101161.38;5022051;28;20034;-67
2021/11/20 10:19:49;;;;;;;18.90;13.30;;;;;;;10.24;86.28;101152.72;5010953;28;20141;-71
2021/11/20 10:22:35;;;;;;;21.60;13.80;;;;;;;10.04;86.06;101136.63;5013067;28;20481;-69
2021/11/20 10:25:15;;;;;;;23.23;14.20;;;;;;;10.02;86.08;101135.84;5009618;28;20757;-70
2021/11/20 10:28:00;;;;;;;14.90;10.93;;;;;;;10.04;85.61;101133.94;4997151;28;20057;-68
2021/11/20 10:30:40;;;;;;;19.85;13.38;;;;;;;10.11;87.16;101126.56;4997128;28;20432;-68
2021/11/20 10:33:16;;;;;;;19.63;13.00;;;;;;;10.17;86.20;101122.75;5011990;28;20046;-70
2021/11/20 10:36:06;;;;;;;20.30;13.40;;;;;;;10.23;85.97;101127.81;4996960;28;20073;-68
2021/11/20 10:38:40;;;;;;;22.87;14.23;;;;;;;10.05;85.59;101126.84;4997060;28;20050;-68
2021/11/20 10:41:19;;;;;;;20.73;14.70;;;;;;;10.09;85.17;101114.22;4996987;28;20042;-70
2021/11/20 10:43:54;;;;;;;23.83;15.52;;;;;;;10.14;85.56;101113.09;5007973;28;20446;-67
2021/11/20 10:46:30;;;;;;;18.38;13.57;;;;;;;10.12;84.37;101114.97;4996694;28;20056;-66
2021/11/20 10:49:55;;;;;;;21.17;13.65;;;;;;;10.13;84.64;101094.50;4996705;28;20046;-67
2021/11/20 10:52:48;;;;;;;20.33;14.20;;;;;;;10.07;84.21;101105.44;5015243;28;20041;-66
2021/11/20 10:55:35;;;;;;;26.13;13.38;;;;;;;9.91;84.83;101104.28;5013430;28;20439;-66
2021/11/20 10:58:23;;;;;;;24.17;13.82;;;;;;;9.96;84.21;101097.91;5012621;28;20081;-67
2021/11/20 11:01:13;;;;;;;21.08;13.90;;;;;;;9.86;86.18;101092.94;5008423;28;20041;-67
2021/11/20 11:03:45;;;;;;;20.33;13.65;;;;;;;9.85;85.38;101085.88;4982846;28;20145;-67
2021/11/20 11:06:42;;;;;;;22.73;15.50;;;;;;;9.92;84.99;101081.19;5011048;28;20382;-65
2021/11/20 11:09:35;;;;;;;21.63;14.15;;;;;;;9.96;85.11;101069.41;5008944;28;20042;-65
2021/11/20 11:12:07;;;;;;;20.42;13.55;;;;;;;9.97;85.13;101070.31;5010966;28;20108;-65
2021/11/20 11:14:55;;;;;;;18.42;13.00;;;;;;;9.94;84.30;101067.75;5008287;28;20035;-67
2021/11/20 11:17:50;;;;;;;20.13;13.55;;;;;;;9.90;84.44;101067.03;5009265;28;20038;-65
2021/11/20 11:20:29;;;;;;;18.38;12.98;;;;;;;9.94;83.59;101059.75;5027149;28;20041;-66
2021/11/20 11:23:34;;;;;;;18.45;13.20;;;;;;;10.14;82.07;101054.41;5011263;28;20080;-67
2021/11/20 11:26:14;;;;;;;20.83;13.38;;;;;;;9.92;83.66;101047.34;5009863;28;20068;-64
2021/11/20 11:28:51;;;;;;;18.20;13.10;;;;;;;9.95;84.30;101041.03;5013333;28;20049;-65
2021/11/20 11:31:27;;;;;;;20.30;13.27;;;;;;;10.08;82.27;101035.16;5012532;28;20050;-65
2021/11/20 11:34:00;;;;;;;18.80;12.77;;;;;;;10.01;83.71;101015.88;5010183;28;20164;-66
2021/11/20 11:36:45;;;;;;;20.58;13.43;;;;;;;9.96;84.03;101017.91;5008612;28;20339;-68
2021/11/20 11:39:33;;;;;;;21.40;11.73;;;;;;;10.00;82.70;101007.03;5012020;28;20446;-68
2021/11/20 11:42:15;;;;;;;19.25;13.05;;;;;;;9.97;82.95;101001.81;5010217;28;20053;-66
2021/11/20 11:45:07;;;;;;;17.33;12.50;;;;;;;9.99;82.18;100994.63;5010877;28;20053;-66
2021/11/20 11:47:57;;;;;;;19.00;11.98;;;;;;;10.00;82.72;100987.47;5010550;28;20042;-67
2021/11/20 11:51:02;;;;;;;16.80;11.55;;;;;;;9.94;82.48;100988.63;5012026;28;20422;-71